Time;durP1;ratioP1;P1;durP2;ratioP2;P2;SDS_P1;SDS_P2;PMS_P1;PMS_P2;Temp;Humidity;BMP_temperature;BMP_pressure;BME280_temperature;BME280_humidity;BME280_pressure;Samples;Min_cycle;Max_cycle;Signal;HPM_P1;HPM_P2
2023/10/26 00:00:32;;;;;;;0.80;0.47;;;;;;;10.01;100.00;95138.94;4996245;28;20504;-75
2023/10/26 00:02:58;;;;;;;0.75;0.45;;;;;;;9.94;100.00;95134.31;5007963;28;20038;-74
2023/10/26 00:05:24;;;;;;;0.90;0.40;;;;;;;9.93;100.00;95132.75;4997917;28;20727;-73
2023/10/26 00:07:49;;;;;;;3.25;0.50;;;;;;;9.93;100.00;95136.25;4995969;28;20046;-73
2023/10/26 00:10:15;;;;;;;1.33;0.55;;;;;;;9.91;100.00;95129.63;4994419;28;20042;-72
2023/10/26 00:12:41;;;;;;;1.67;0.40;;;;;;;9.90;100.00;95126.13;5008932;28;20045;-74
2023/10/26 00:15:06;;;;;;;1.17;0.40;;;;;;;9.90;100.00;95119.88;4982653;28;20096;-72
2023/10/26 00:17:32;;;;;;;0.73;0.40;;;;;;;9.93;100.00;95121.81;5003168;28;20058;-72
2023/10/26 00:19:58;;;;;;;2.60;0.50;;;;;;;10.06;100.00;95122.09;4987449;28;20225;-71
2023/10/26 00:22:23;;;;;;;0.73;0.50;;;;;;;10.08;100.00;95115.06;4989349;28;20270;-73
2023/10/26 00:24:50;;;;;;;0.57;0.50;;;;;;;10.05;100.00;95123.31;5002725;28;20046;-74
2023/10/26 00:27:15;;;;;;;2.10;0.40;;;;;;;10.16;100.00;95125.97;4997803;28;20049;-72
2023/10/26 00:29:41;;;;;;;0.95;0.40;;;;;;;10.21;100.00;95115.38;5007548;28;20045;-73
2023/10/26 00:32:07;;;;;;;3.50;0.43;;;;;;;10.23;100.00;95123.94;4985520;28;23469;-73
2023/10/26 00:34:33;;;;;;;0.63;0.40;;;;;;;10.31;100.00;95119.22;4991671;28;20145;-71
2023/10/26 00:36:59;;;;;;;0.47;0.43;;;;;;;10.28;100.00;95117.25;4988477;28;20047;-72
2023/10/26 00:39:25;;;;;;;0.60;0.47;;;;;;;10.48;100.00;95115.56;4999238;28;20034;-71
2023/10/26 00:41:51;;;;;;;1.65;0.45;;;;;;;10.55;100.00;95120.19;5018388;28;20041;-70
2023/10/26 00:44:17;;;;;;;0.77;0.40;;;;;;;10.61;100.00;95099.41;5003875;28;20046;-73
2023/10/26 00:46:43;;;;;;;2.95;0.40;;;;;;;10.64;100.00;95116.97;5007383;28;20424;-72
2023/10/26 00:49:11;;;;;;;1.92;0.50;;;;;;;10.63;100.00;95109.97;4983494;28;20128;-72
2023/10/26 00:51:38;;;;;;;3.97;0.50;;;;;;;10.58;100.00;95110.38;5006389;28;20531;-73
2023/10/26 00:54:05;;;;;;;0.50;0.40;;;;;;;10.63;100.00;95116.19;5007599;28;20057;-71
2023/10/26 00:56:31;;;;;;;0.88;0.50;;;;;;;10.58;100.00;95116.63;4998471;28;20077;-74
2023/10/26 00:58:57;;;;;;;0.40;0.40;;;;;;;10.60;100.00;95125.22;4984806;28;20084;-74
2023/10/26 01:01:23;;;;;;;1.02;0.50;;;;;;;10.58;100.00;95118.59;4998072;28;20591;-76
2023/10/26 01:03:51;;;;;;;0.40;0.32;;;;;;;10.61;100.00;95117.81;4996137;28;20048;-74
2023/10/26 01:06:17;;;;;;;0.55;0.40;;;;;;;10.50;100.00;95121.41;4998711;28;20038;-74
2023/10/26 01:08:42;;;;;;;0.57;0.43;;;;;;;10.39;100.00;95120.72;4994605;28;20056;-72
2023/10/26 01:11:08;;;;;;;1.52;0.50;;;;;;;10.45;100.00;95119.09;4990780;28;20605;-71
2023/10/26 01:13:34;;;;;;;1.27;0.75;;;;;;;10.49;100.00;95116.31;4997586;28;20050;-75
2023/10/26 01:16:01;;;;;;;1.70;0.57;;;;;;;10.46;100.00;95117.13;5018098;28;20373;-74
2023/10/26 01:18:26;;;;;;;1.05;0.43;;;;;;;10.44;100.00;95114.03;4994183;28;20524;-73
2023/10/26 01:20:53;;;;;;;0.85;0.50;;;;;;;10.48;100.00;95117.53;5006927;28;20073;-75
2023/10/26 01:23:18;;;;;;;0.73;0.40;;;;;;;10.38;100.00;95118.38;5008974;28;20042;-74
2023/10/26 01:25:51;;;;;;;0.90;0.40;;;;;;;10.40;100.00;95108.56;5017866;28;20049;-76
2023/10/26 01:28:17;;;;;;;0.95;0.40;;;;;;;10.41;100.00;95114.84;5003936;28;20581;-73
2023/10/26 01:30:42;;;;;;;0.30;0.30;;;;;;;10.49;100.00;95105.38;5012072;28;20132;-74
2023/10/26 01:33:08;;;;;;;0.57;0.40;;;;;;;10.51;100.00;95103.00;4999596;28;20630;-72
2023/10/26 01:35:45;;;;;;;2.75;0.45;;;;;;;10.50;100.00;95101.47;5004867;28;20076;-72
2023/10/26 01:38:12;;;;;;;0.30;0.30;;;;;;;10.45;100.00;95090.97;5009385;28;20504;-72
2023/10/26 01:40:37;;;;;;;0.85;0.40;;;;;;;10.49;100.00;95094.44;5006482;28;20041;-72
2023/10/26 01:43:03;;;;;;;0.55;0.40;;;;;;;10.46;100.00;95085.09;5000201;28;20038;-69
2023/10/26 01:45:28;;;;;;;0.32;0.32;;;;;;;10.40;100.00;95085.91;5022618;28;20083;-70
2023/10/26 01:47:54;;;;;;;3.25;0.50;;;;;;;10.28;100.00;95089.88;5006824;28;20057;-73
2023/10/26 01:50:20;;;;;;;3.40;0.50;;;;;;;10.18;100.00;95088.81;4992318;28;20443;-73
2023/10/26 01:52:45;;;;;;;1.00;0.40;;;;;;;10.21;100.00;95085.25;5004238;28;20559;-74
2023/10/26 01:55:11;;;;;;;1.73;0.40;;;;;;;10.22;100.00;95075.88;5007243;28;20136;-75
2023/10/26 01:57:36;;;;;;;1.40;0.60;;;;;;;10.28;100.00;95068.78;5013946;28;20555;-74
2023/10/26 02:00:03;;;;;;;0.50;0.40;;;;;;;10.32;100.00;95066.06;5020972;28;20151;-73
2023/10/26 02:02:28;;;;;;;0.88;0.50;;;;;;;10.29;100.00;95072.28;4996746;28;20049;-73
2023/10/26 02:04:54;;;;;;;0.60;0.50;;;;;;;10.34;100.00;95069.16;4995903;28;20053;-73
2023/10/26 02:07:20;;;;;;;1.65;0.40;;;;;;;10.21;100.00;95073.53;5002341;28;20046;-73
2023/10/26 02:09:46;;;;;;;0.73;0.45;;;;;;;10.11;100.00;95064.25;5005889;28;20136;-74
2023/10/26 02:12:11;;;;;;;0.50;0.43;;;;;;;10.03;100.00;95058.06;4979986;28;20041;-73
2023/10/26 02:14:37;;;;;;;2.25;0.68;;;;;;;10.05;100.00;95060.38;5000377;28;20041;-75
2023/10/26 02:17:02;;;;;;;2.03;0.60;;;;;;;10.02;100.00;95067.44;5010856;28;20045;-72
2023/10/26 02:19:28;;;;;;;1.98;0.60;;;;;;;10.12;100.00;95061.09;5006050;28;20136;-72
2023/10/26 02:21:53;;;;;;;2.75;0.50;;;;;;;10.14;100.00;95066.94;5011259;28;20145;-74
2023/10/26 02:24:18;;;;;;;1.90;0.70;;;;;;;10.07;100.00;95061.53;5007254;28;20045;-74
2023/10/26 02:26:44;;;;;;;0.68;0.40;;;;;;;10.01;100.00;95057.69;5013519;28;20045;-73
2023/10/26 02:29:09;;;;;;;0.80;0.60;;;;;;;10.02;100.00;95053.75;4979142;28;20113;-74
2023/10/26 02:31:35;;;;;;;2.92;0.80;;;;;;;10.12;100.00;95061.09;5008211;28;20046;-75
2023/10/26 02:34:00;;;;;;;0.32;0.32;;;;;;;10.24;100.00;95054.34;4996595;28;20081;-72
2023/10/26 02:36:25;;;;;;;1.70;0.70;;;;;;;10.36;100.00;95053.09;4993795;28;20141;-74
2023/10/26 02:38:51;;;;;;;1.00;0.43;;;;;;;10.53;100.00;95051.38;5007354;28;20496;-72
2023/10/26 02:41:16;;;;;;;1.23;0.70;;;;;;;10.60;100.00;95061.47;5001776;28;20072;-74
2023/10/26 02:43:42;;;;;;;0.52;0.50;;;;;;;10.63;100.00;95050.50;5018970;28;20081;-72
2023/10/26 02:46:08;;;;;;;3.80;0.60;;;;;;;10.71;100.00;95049.25;5019412;28;20026;-73
2023/10/26 02:48:34;;;;;;;2.38;0.57;;;;;;;10.65;100.00;95045.38;5026782;28;20053;-71
2023/10/26 02:51:00;;;;;;;2.03;0.50;;;;;;;10.62;100.00;95045.41;4985937;28;20602;-75
2023/10/26 02:53:25;;;;;;;0.40;0.40;;;;;;;10.57;100.00;95041.19;4992252;28;20053;-71
2023/10/26 02:55:50;;;;;;;1.55;0.50;;;;;;;10.58;100.00;95031.00;4996442;28;20115;-73
2023/10/26 02:58:16;;;;;;;0.50;0.40;;;;;;;10.42;100.00;95034.28;4995479;28;20038;-74
2023/10/26 03:00:41;;;;;;;0.77;0.47;;;;;;;10.31;100.00;95037.13;4985692;28;20050;-74
2023/10/26 03:03:06;;;;;;;1.23;0.50;;;;;;;10.25;100.00;95044.97;4987182;28;20050;-73
2023/10/26 03:05:33;;;;;;;0.57;0.32;;;;;;;10.25;100.00;95036.00;5006616;28;20147;-74
2023/10/26 03:07:59;;;;;;;2.33;0.50;;;;;;;10.30;100.00;95030.09;5003148;28;20048;-73
2023/10/26 03:10:25;;;;;;;2.78;0.50;;;;;;;10.35;100.00;95031.63;5000345;28;20046;-74
2023/10/26 03:12:52;;;;;;;0.55;0.50;;;;;;;10.33;100.00;95034.75;4998117;28;20054;-71
2023/10/26 03:15:18;;;;;;;1.25;0.60;;;;;;;10.38;100.00;95028.84;4985731;28;20667;-74
2023/10/26 03:17:43;;;;;;;0.85;0.52;;;;;;;10.40;100.00;95028.44;4989228;28;20250;-74
2023/10/26 03:20:09;;;;;;;1.48;0.50;;;;;;;10.39;100.00;95029.63;4987947;28;20104;-75
2023/10/26 03:22:34;;;;;;;2.05;1.00;;;;;;;10.36;100.00;95039.41;5005921;28;20480;-74
2023/10/26 03:25:00;;;;;;;2.83;1.65;;;;;;;10.30;100.00;95035.56;5000028;28;20151;-74
2023/10/26 03:27:26;;;;;;;4.43;1.00;;;;;;;10.33;100.00;95038.28;4980027;28;20053;-73
2023/10/26 03:29:53;;;;;;;1.38;0.70;;;;;;;10.33;100.00;95037.50;5011494;28;20232;-74
2023/10/26 03:32:19;;;;;;;2.03;0.70;;;;;;;10.17;100.00;95048.94;4999548;28;20048;-73
2023/10/26 03:34:44;;;;;;;1.23;0.60;;;;;;;10.20;100.00;95034.44;5015300;28;20050;-74
2023/10/26 03:37:09;;;;;;;3.45;1.35;;;;;;;10.25;100.00;95038.72;4992952;28;20519;-73
2023/10/26 03:39:35;;;;;;;2.17;1.00;;;;;;;10.30;100.00;95039.06;5001320;28;20080;-73
2023/10/26 03:42:01;;;;;;;2.28;0.88;;;;;;;10.21;100.00;95046.97;4985802;28;20053;-73
2023/10/26 03:44:26;;;;;;;2.83;1.00;;;;;;;10.28;100.00;95037.91;4999638;28;20057;-73
2023/10/26 03:46:52;;;;;;;0.90;0.60;;;;;;;10.32;100.00;95035.94;5004853;28;20507;-74
2023/10/26 03:49:20;;;;;;;3.15;0.73;;;;;;;10.33;100.00;95030.06;5005892;28;20029;-72
2023/10/26 03:51:46;;;;;;;1.88;0.70;;;;;;;10.38;100.00;95039.03;5025193;28;20042;-74
2023/10/26 03:54:12;;;;;;;0.80;0.57;;;;;;;10.32;100.00;95031.25;4988362;28;20054;-72
2023/10/26 03:56:38;;;;;;;2.90;0.60;;;;;;;10.24;100.00;95035.19;5008818;28;20042;-72
2023/10/26 03:59:03;;;;;;;2.25;0.57;;;;;;;10.26;100.00;95026.59;5005224;28;20065;-72
2023/10/26 04:01:29;;;;;;;0.95;0.52;;;;;;;10.33;100.00;95032.00;5010988;28;20081;-72
2023/10/26 04:03:54;;;;;;;1.95;0.70;;;;;;;10.35;100.00;95026.13;4996417;28;20046;-73
2023/10/26 04:06:19;;;;;;;2.55;0.50;;;;;;;10.33;100.00;95027.34;4993063;28;20099;-73
2023/10/26 04:08:45;;;;;;;2.97;2.03;;;;;;;10.30;100.00;95022.66;5013131;28;20046;-74
2023/10/26 04:11:19;;;;;;;1.30;0.45;;;;;;;10.32;100.00;95016.78;4999281;28;20381;-73
2023/10/26 04:13:44;;;;;;;2.38;0.57;;;;;;;10.32;100.00;95022.28;5011536;28;20053;-73
2023/10/26 04:16:11;;;;;;;0.50;0.40;;;;;;;10.30;100.00;95032.81;5009839;28;20046;-75
2023/10/26 04:18:36;;;;;;;1.83;0.50;;;;;;;10.24;100.00;95026.22;4991778;28;20396;-75
2023/10/26 04:21:02;;;;;;;0.77;0.52;;;;;;;10.28;100.00;95021.47;5012812;28;20057;-74
2023/10/26 04:23:27;;;;;;;0.65;0.40;;;;;;;10.43;100.00;95022.16;5007945;28;20041;-72
2023/10/26 04:25:53;;;;;;;1.10;0.50;;;;;;;10.34;100.00;95017.16;5012296;28;20050;-73
2023/10/26 04:28:19;;;;;;;3.13;0.52;;;;;;;10.33;100.00;95023.81;4994435;28;20068;-73
2023/10/26 04:30:48;;;;;;;0.63;0.50;;;;;;;10.41;100.00;95013.59;5011555;28;20045;-73
2023/10/26 04:33:17;;;;;;;0.33;0.33;;;;;;;10.45;100.00;95017.06;5016299;28;20041;-72
2023/10/26 04:35:43;;;;;;;1.80;0.50;;;;;;;10.41;100.00;95016.31;4992742;28;20296;-73
2023/10/26 04:38:09;;;;;;;0.85;0.50;;;;;;;10.36;100.00;95016.75;4989901;28;20042;-74
2023/10/26 04:40:39;;;;;;;0.40;0.40;;;;;;;10.48;100.00;95011.53;5012558;28;20041;-73
2023/10/26 04:43:05;;;;;;;1.35;0.70;;;;;;;10.45;100.00;95009.63;4982152;28;20133;-72
2023/10/26 04:45:31;;;;;;;2.67;1.20;;;;;;;10.35;100.00;95012.47;5002941;28;20038;-75
2023/10/26 04:47:57;;;;;;;1.23;0.60;;;;;;;10.35;100.00;95010.50;4997685;28;20390;-71
2023/10/26 04:50:23;;;;;;;4.93;0.50;;;;;;;10.23;100.00;95008.25;5013930;28;20060;-70
2023/10/26 04:52:48;;;;;;;0.68;0.50;;;;;;;10.12;100.00;95006.38;5017431;28;20049;-71
2023/10/26 04:55:14;;;;;;;2.40;0.75;;;;;;;10.16;100.00;95011.06;4991643;28;20046;-72
2023/10/26 04:57:39;;;;;;;0.77;0.50;;;;;;;10.12;100.00;95002.88;5003468;28;20409;-72
2023/10/26 05:00:09;;;;;;;1.33;0.60;;;;;;;10.05;100.00;95000.97;4986712;28;20057;-70
2023/10/26 05:02:38;;;;;;;0.75;0.50;;;;;;;10.01;100.00;94994.78;4981881;28;20404;-71
2023/10/26 05:05:04;;;;;;;1.95;0.50;;;;;;;10.03;100.00;94991.63;4997669;28;20424;-69
2023/10/26 05:07:30;;;;;;;0.95;0.52;;;;;;;10.12;100.00;94989.22;4988477;28;20046;-73
2023/10/26 05:09:57;;;;;;;1.55;0.63;;;;;;;10.22;100.00;94984.81;4995408;28;20077;-70
2023/10/26 05:12:22;;;;;;;1.35;0.60;;;;;;;10.31;100.00;94987.88;4983266;28;20891;-70
2023/10/26 05:14:47;;;;;;;2.05;0.63;;;;;;;10.36;100.00;94984.69;5013126;28;20145;-72
2023/10/26 05:17:13;;;;;;;1.85;0.55;;;;;;;10.39;100.00;94983.88;4988674;28;20107;-70
2023/10/26 05:19:38;;;;;;;3.50;2.13;;;;;;;10.39;100.00;94983.09;5004897;28;20053;-71
2023/10/26 05:22:04;;;;;;;2.25;0.77;;;;;;;10.42;100.00;94979.53;4990535;28;20046;-69
2023/10/26 05:24:29;;;;;;;2.53;0.68;;;;;;;10.42;100.00;94972.09;5010157;23;20160;-71
2023/10/26 05:26:55;;;;;;;2.67;0.73;;;;;;;10.46;100.00;94972.06;4984186;28;20046;-69
2023/10/26 05:29:20;;;;;;;4.47;0.70;;;;;;;10.42;100.00;94968.59;4978609;28;20500;-70
2023/10/26 05:31:46;;;;;;;3.20;0.73;;;;;;;10.44;100.00;94960.75;4983909;28;20042;-71
2023/10/26 05:34:11;;;;;;;1.52;0.60;;;;;;;10.38;100.00;94962.41;4978635;28;20061;-72
2023/10/26 05:36:36;;;;;;;3.35;0.90;;;;;;;10.47;100.00;94957.22;4970011;28;20049;-71
2023/10/26 05:39:03;;;;;;;3.85;1.00;;;;;;;10.68;100.00;94950.72;5002206;28;20049;-73
2023/10/26 05:41:29;;;;;;;5.43;2.30;;;;;;;10.66;100.00;94950.31;4984323;28;20139;-72
2023/10/26 05:43:54;;;;;;;3.42;1.30;;;;;;;10.58;100.00;94943.41;4989533;28;20124;-70
2023/10/26 05:46:19;;;;;;;1.95;0.77;;;;;;;10.52;100.00;94945.81;4981378;28;20500;-71
2023/10/26 05:48:45;;;;;;;1.52;0.77;;;;;;;10.40;100.00;94949.06;5002032;28;20146;-69
2023/10/26 05:51:10;;;;;;;1.42;0.90;;;;;;;10.20;100.00;94938.69;4978120;28;20492;-70
2023/10/26 05:53:36;;;;;;;1.83;0.98;;;;;;;10.14;100.00;94957.53;5001664;28;20057;-70
2023/10/26 05:56:03;;;;;;;1.95;0.85;;;;;;;10.15;100.00;94950.06;4993875;28;20129;-70
2023/10/26 05:58:29;;;;;;;2.00;1.23;;;;;;;10.22;100.00;94951.97;5007417;28;20033;-70
2023/10/26 06:00:54;;;;;;;2.97;0.90;;;;;;;10.28;100.00;94948.41;4993938;28;20046;-70
2023/10/26 06:03:20;;;;;;;1.73;0.80;;;;;;;10.26;100.00;94947.22;4995330;28;20129;-71
2023/10/26 06:05:47;;;;;;;1.25;0.68;;;;;;;10.27;100.00;94952.31;5001347;28;20088;-71
2023/10/26 06:08:13;;;;;;;7.68;1.55;;;;;;;10.39;100.00;94944.78;5002420;28;20054;-71
2023/10/26 06:10:38;;;;;;;9.57;2.28;;;;;;;10.48;100.00;94947.81;5002331;28;20038;-71
2023/10/26 06:13:04;;;;;;;26.38;4.90;;;;;;;10.50;100.00;94942.72;4962193;28;20368;-72
2023/10/26 06:15:30;;;;;;;3.83;1.30;;;;;;;10.51;100.00;94941.50;5001245;28;20037;-72
2023/10/26 06:17:55;;;;;;;3.33;1.52;;;;;;;10.62;100.00;94933.94;5001666;28;20041;-72
2023/10/26 06:20:24;;;;;;;2.80;1.40;;;;;;;10.54;100.00;94939.94;4996209;28;20073;-70
2023/10/26 06:22:49;;;;;;;2.87;1.80;;;;;;;10.28;100.00;94945.66;4999960;28;20050;-70
2023/10/26 06:25:15;;;;;;;3.10;1.90;;;;;;;10.05;100.00;94937.31;4994026;28;20076;-71
2023/10/26 06:27:40;;;;;;;3.55;2.10;;;;;;;9.94;100.00;94942.88;4982851;28;20048;-71
2023/10/26 06:30:06;;;;;;;4.72;2.20;;;;;;;9.94;100.00;94948.34;4995459;28;20180;-70
2023/10/26 06:32:32;;;;;;;2.60;1.90;;;;;;;10.24;100.00;94952.34;5012710;28;20111;-71
2023/10/26 06:34:57;;;;;;;5.20;1.80;;;;;;;10.33;100.00;94967.13;4983801;28;20081;-71
2023/10/26 06:37:23;;;;;;;6.05;1.95;;;;;;;10.22;100.00;94963.69;4993919;28;20489;-71
2023/10/26 06:39:48;;;;;;;6.80;2.38;;;;;;;10.24;100.00;94966.78;4984173;28;20055;-69
2023/10/26 06:42:14;;;;;;;7.38;2.80;;;;;;;10.21;100.00;94958.63;4994097;28;20038;-70
2023/10/26 06:44:40;;;;;;;9.10;2.95;;;;;;;10.33;100.00;94967.13;5000897;28;20133;-70
2023/10/26 06:47:05;;;;;;;9.15;3.72;;;;;;;10.42;100.00;94963.91;4995755;28;20053;-70
2023/10/26 06:49:31;;;;;;;2.65;1.23;;;;;;;10.55;100.00;94964.13;5001547;28;20100;-70
2023/10/26 06:51:56;;;;;;;4.55;1.50;;;;;;;10.59;100.00;94953.16;5000623;28;20131;-70
2023/10/26 06:54:22;;;;;;;3.83;1.60;;;;;;;10.52;100.00;94949.31;4993915;28;20081;-70
2023/10/26 06:56:47;;;;;;;7.78;6.75;;;;;;;10.26;100.00;94950.75;5001477;28;20052;-70
2023/10/26 06:59:12;;;;;;;5.47;3.00;;;;;;;10.08;100.00;94948.22;4995673;28;20046;-71
2023/10/26 07:01:38;;;;;;;7.20;2.72;;;;;;;10.00;100.00;94954.16;5001060;28;20046;-71
2023/10/26 07:04:04;;;;;;;9.20;6.13;;;;;;;9.94;100.00;94957.31;4994502;28;20064;-68
2023/10/26 07:06:30;;;;;;;4.18;2.60;;;;;;;10.08;100.00;94955.63;5000174;28;20457;-71
2023/10/26 07:08:55;;;;;;;4.30;2.70;;;;;;;10.13;100.00;94969.63;5001755;28;20049;-71
2023/10/26 07:11:21;;;;;;;3.55;2.25;;;;;;;10.18;100.00;94956.72;4995958;28;20960;-71
2023/10/26 07:13:46;;;;;;;4.55;2.50;;;;;;;10.15;100.00;94952.81;4999960;28;20056;-71
2023/10/26 07:16:12;;;;;;;4.97;2.35;;;;;;;9.98;100.00;94953.78;4996254;28;20105;-71
2023/10/26 07:18:37;;;;;;;4.45;2.80;;;;;;;9.94;100.00;94946.38;5000266;28;20104;-71
2023/10/26 07:21:07;;;;;;;3.88;2.80;;;;;;;10.01;100.00;94958.41;5003448;28;20046;-71
2023/10/26 07:23:33;;;;;;;5.22;2.83;;;;;;;10.10;100.00;94947.78;5018141;28;20045;-71
2023/10/26 07:25:59;;;;;;;5.20;3.22;;;;;;;10.03;100.00;94942.38;4999197;28;20639;-72
2023/10/26 07:28:24;;;;;;;5.60;3.60;;;;;;;10.02;100.00;94940.84;5000468;28;20055;-71
2023/10/26 07:30:51;;;;;;;5.22;3.33;;;;;;;9.99;100.00;94928.75;5001337;28;20045;-71
2023/10/26 07:33:18;;;;;;;4.65;2.85;;;;;;;10.02;100.00;94933.41;4995091;28;20053;-71
2023/10/26 07:35:56;;;;;;;21.45;13.43;;;;;;;10.19;100.00;94945.38;5000956;28;20084;-71
2023/10/26 07:38:24;;;;;;;17.35;11.18;;;;;;;10.21;100.00;94943.00;4995944;28;20060;-71
2023/10/26 07:40:54;;;;;;;14.55;7.20;;;;;;;10.25;100.00;94937.50;5012597;28;20060;-71
2023/10/26 07:43:20;;;;;;;5.22;3.63;;;;;;;10.07;100.00;94943.13;4999809;28;20065;-71
2023/10/26 07:45:47;;;;;;;29.38;18.50;;;;;;;10.32;100.00;94932.72;5004927;28;20549;-71
2023/10/26 07:48:13;;;;;;;15.05;13.55;;;;;;;10.15;100.00;94922.72;4973020;28;20416;-71
2023/10/26 07:50:38;;;;;;;6.28;4.05;;;;;;;10.12;100.00;94923.56;5001035;28;20042;-71
2023/10/26 07:53:05;;;;;;;6.70;4.82;;;;;;;10.07;100.00;94927.50;4997809;28;20142;-67
2023/10/26 07:55:31;;;;;;;6.65;5.53;;;;;;;10.21;100.00;94932.06;5007617;28;20049;-71
2023/10/26 07:57:56;;;;;;;11.40;9.02;;;;;;;10.11;100.00;94943.88;5005552;28;20378;-72
2023/10/26 08:00:21;;;;;;;4.88;3.67;;;;;;;10.22;100.00;94952.75;4999179;28;20060;-71
2023/10/26 08:02:47;;;;;;;7.93;4.57;;;;;;;10.24;100.00;94944.13;5015408;28;20058;-72
2023/10/26 08:05:15;;;;;;;6.15;5.32;;;;;;;10.28;100.00;94931.19;5001169;28;20042;-71
2023/10/26 08:07:40;;;;;;;10.07;5.03;;;;;;;10.25;100.00;94935.53;5004050;28;20045;-71
2023/10/26 08:10:06;;;;;;;8.23;4.45;;;;;;;10.22;100.00;94935.56;4999075;28;20675;-71
2023/10/26 08:12:32;;;;;;;6.53;4.70;;;;;;;10.24;100.00;94933.94;4986715;28;20050;-71
2023/10/26 08:14:57;;;;;;;8.82;5.70;;;;;;;10.31;100.00;94939.38;4985665;28;20115;-71
2023/10/26 08:17:25;;;;;;;8.25;5.78;;;;;;;10.45;100.00;94932.97;4998568;28;20942;-71
2023/10/26 08:19:53;;;;;;;9.98;6.85;;;;;;;10.84;100.00;94929.00;5004905;28;20038;-71
2023/10/26 08:22:20;;;;;;;8.07;4.97;;;;;;;10.76;100.00;94932.22;4998007;28;20048;-72
2023/10/26 08:24:47;;;;;;;6.60;5.15;;;;;;;10.72;100.00;94945.97;5002520;28;20041;-71
2023/10/26 08:27:12;;;;;;;5.20;4.50;;;;;;;10.88;100.00;94943.41;4981263;28;20125;-71
2023/10/26 08:29:38;;;;;;;4.65;3.95;;;;;;;10.84;100.00;94950.91;5013959;28;20191;-71
2023/10/26 08:32:03;;;;;;;5.25;3.60;;;;;;;10.98;100.00;94949.16;4980760;28;20060;-70
2023/10/26 08:34:29;;;;;;;4.30;2.97;;;;;;;11.12;100.00;94951.69;4999227;28;20105;-72
2023/10/26 08:36:54;;;;;;;4.00;3.15;;;;;;;11.29;100.00;94961.63;5011973;28;20072;-71
2023/10/26 08:39:20;;;;;;;4.95;3.72;;;;;;;10.88;100.00;94948.88;4982975;28;20042;-72
2023/10/26 08:41:50;;;;;;;5.32;3.95;;;;;;;11.23;100.00;94954.28;4987788;28;20354;-71
2023/10/26 08:44:17;;;;;;;4.68;3.15;;;;;;;11.25;100.00;94958.19;4997746;28;20038;-72
2023/10/26 08:46:44;;;;;;;3.15;2.70;;;;;;;11.31;100.00;94965.91;5002699;28;20046;-71
2023/10/26 08:49:11;;;;;;;4.47;3.05;;;;;;;11.65;100.00;94969.34;5005992;28;20073;-72
2023/10/26 08:51:37;;;;;;;4.28;3.10;;;;;;;11.86;100.00;94976.41;5002010;28;20401;-72
2023/10/26 08:54:02;;;;;;;8.98;3.35;;;;;;;12.32;100.00;94984.34;5001318;28;20045;-70
2023/10/26 08:56:28;;;;;;;3.67;1.83;;;;;;;12.58;100.00;94990.91;4982855;28;20136;-70
2023/10/26 08:58:59;;;;;;;2.88;1.70;;;;;;;12.81;100.00;94979.09;5002547;28;20049;-71
2023/10/26 09:01:25;;;;;;;4.75;1.63;;;;;;;13.11;100.00;94980.06;4996698;28;20454;-71
2023/10/26 09:03:51;;;;;;;3.83;1.40;;;;;;;13.26;100.00;94980.53;5002318;28;20045;-70
2023/10/26 09:06:16;;;;;;;2.05;1.10;;;;;;;13.45;100.00;94968.72;4997040;28;20404;-71
2023/10/26 09:08:42;;;;;;;2.00;0.90;;;;;;;13.70;100.00;94967.38;5001937;28;20347;-71
2023/10/26 09:11:22;;;;;;;0.95;0.65;;;;;;;14.05;100.00;94974.00;4996968;28;20478;-71
2023/10/26 09:13:50;;;;;;;1.88;1.20;;;;;;;13.92;100.00;94976.66;5003899;28;20404;-71
2023/10/26 09:16:15;;;;;;;2.60;0.75;;;;;;;13.98;100.00;94967.91;4997461;28;20041;-71
2023/10/26 09:18:49;;;;;;;2.53;0.57;;;;;;;14.30;100.00;94962.34;4983949;28;20046;-71
2023/10/26 09:21:16;;;;;;;2.75;0.60;;;;;;;14.46;100.00;94969.03;4979881;28;20041;-71
2023/10/26 09:23:42;;;;;;;1.65;0.60;;;;;;;14.27;100.00;94974.22;5001252;28;20096;-71
2023/10/26 09:26:09;;;;;;;4.28;2.35;;;;;;;13.96;100.00;94973.81;4997366;28;20049;-71
2023/10/26 09:28:48;;;;;;;1.50;0.90;;;;;;;14.10;100.00;94973.47;5002532;28;20046;-71
2023/10/26 09:31:13;;;;;;;1.52;0.63;;;;;;;14.49;100.00;94968.91;5006876;28;20526;-71
2023/10/26 09:33:39;;;;;;;1.73;0.50;;;;;;;14.23;100.00;94968.03;4997914;28;20054;-71
2023/10/26 09:36:15;;;;;;;0.90;0.70;;;;;;;14.48;100.00;94961.88;5001539;28;20423;-71
2023/10/26 09:38:41;;;;;;;3.83;0.70;;;;;;;14.32;100.00;94959.16;4995992;28;20042;-71
2023/10/26 09:41:25;;;;;;;1.30;0.70;;;;;;;14.36;100.00;94959.84;4980354;28;20050;-71
2023/10/26 09:43:51;;;;;;;2.10;0.90;;;;;;;14.54;100.00;94951.09;4997217;28;20404;-71
2023/10/26 09:46:20;;;;;;;6.50;1.90;;;;;;;14.66;100.00;94972.44;4995732;28;20048;-71
2023/10/26 09:48:46;;;;;;;9.77;4.60;;;;;;;14.68;100.00;94972.78;5002040;28;20052;-71
2023/10/26 09:51:11;;;;;;;9.20;4.15;;;;;;;14.76;100.00;94967.06;4995834;28;20508;-71
2023/10/26 09:53:39;;;;;;;3.28;1.30;;;;;;;14.78;100.00;94970.91;5002009;28;20066;-71
2023/10/26 09:56:06;;;;;;;2.90;0.90;;;;;;;14.66;100.00;94972.44;4980417;28;20045;-71
2023/10/26 09:58:36;;;;;;;2.65;0.90;;;;;;;14.64;100.00;94960.28;5000717;28;20476;-71
2023/10/26 10:01:31;;;;;;;3.83;1.02;;;;;;;14.66;100.00;94960.66;5002083;28;20046;-70
2023/10/26 10:03:57;;;;;;;3.13;0.68;;;;;;;14.57;100.00;94961.25;4996071;28;20540;-69
2023/10/26 10:06:51;;;;;;;2.00;0.52;;;;;;;14.56;100.00;94967.97;4996197;28;20522;-71
2023/10/26 10:09:20;;;;;;;1.42;0.60;;;;;;;14.64;100.00;94969.34;5004313;28;20042;-69
2023/10/26 10:12:06;;;;;;;2.35;0.70;;;;;;;14.64;100.00;94974.88;5001407;28;20092;-70
2023/10/26 10:14:47;;;;;;;1.45;0.80;;;;;;;14.66;100.00;94961.41;5001302;28;20543;-70
2023/10/26 10:17:13;;;;;;;2.72;0.80;;;;;;;14.62;100.00;94946.97;4996163;28;20045;-70
2023/10/26 10:19:40;;;;;;;1.90;1.00;;;;;;;14.82;100.00;94946.81;5008735;28;20038;-70
2023/10/26 10:22:38;;;;;;;1.80;0.77;;;;;;;15.00;100.00;94942.75;4994808;28;20127;-69
2023/10/26 10:25:04;;;;;;;5.95;2.63;;;;;;;14.95;100.00;94952.34;4991333;28;20053;-69
2023/10/26 10:27:29;;;;;;;1.40;0.90;;;;;;;14.68;100.00;94952.72;5000234;28;20042;-70
2023/10/26 10:29:56;;;;;;;1.10;0.80;;;;;;;14.61;100.00;94948.16;4982996;28;20141;-69
2023/10/26 10:35:11;;;;;;;0.85;0.80;;;;;;;14.40;100.00;94952.25;4995957;28;20050;-70
2023/10/26 10:37:37;;;;;;;0.90;0.65;;;;;;;13.87;100.00;94957.91;5008957;28;20392;-71
2023/10/26 10:40:11;;;;;;;1.50;0.75;;;;;;;13.73;100.00;94958.25;4999215;28;20142;-71
2023/10/26 10:42:44;;;;;;;3.83;1.15;;;;;;;13.69;100.00;94968.59;4993237;28;20049;-70
2023/10/26 10:45:13;;;;;;;1.83;0.82;;;;;;;13.65;100.00;94957.66;4977605;28;20046;-71
2023/10/26 10:47:40;;;;;;;3.10;1.05;;;;;;;13.70;100.00;94948.09;4978931;28;20078;-71
2023/10/26 10:50:16;;;;;;;9.43;2.60;;;;;;;13.94;100.00;94952.25;4975247;28;20161;-70
2023/10/26 10:52:42;;;;;;;6.43;1.88;;;;;;;14.09;100.00;94960.13;4998205;28;20103;-71
2023/10/26 10:55:07;;;;;;;5.47;1.38;;;;;;;14.48;100.00;94970.13;4982590;28;20046;-71
2023/10/26 10:57:33;;;;;;;6.78;1.08;;;;;;;14.68;100.00;94981.03;4983728;28;20041;-71
2023/10/26 10:59:58;;;;;;;4.32;0.93;;;;;;;14.54;100.00;94981.41;5000512;28;20081;-71
2023/10/26 11:02:23;;;;;;;3.92;1.30;;;;;;;14.32;100.00;94973.69;4995788;28;20349;-71
2023/10/26 11:04:56;;;;;;;5.30;1.20;;;;;;;13.98;100.00;94967.91;5008599;28;20069;-71
2023/10/26 11:07:30;;;;;;;7.70;2.00;;;;;;;13.83;100.00;94965.50;4996254;28;20429;-70
2023/10/26 11:10:00;;;;;;;10.80;2.17;;;;;;;13.81;100.00;94961.59;5000666;28;20049;-70
2023/10/26 11:12:26;;;;;;;9.20;2.80;;;;;;;13.66;100.00;94972.19;4978020;28;20081;-70
2023/10/26 11:14:53;;;;;;;9.32;1.60;;;;;;;13.57;100.00;94967.28;5002277;28;20103;-71
2023/10/26 11:17:20;;;;;;;10.50;1.77;;;;;;;13.63;100.00;94962.03;4982272;28;20514;-71
2023/10/26 11:19:47;;;;;;;15.02;3.08;;;;;;;13.64;100.00;94952.59;5004215;28;20148;-71
2023/10/26 11:22:16;;;;;;;11.90;3.10;;;;;;;13.48;100.00;94956.84;4999295;28;20053;-71
2023/10/26 11:24:42;;;;;;;;;;;;;;;13.28;100.00;94958.88;4986750;28;20042;-71